sensor_id;sensor_type;location;lat;lon;timestamp;temperature;humidity
17701;DHT22;8969;48.576;12.580;2023-12-22T00:00:19;5.10;99.90
17701;DHT22;8969;48.576;12.580;2023-12-22T00:02:48;5.00;99.90
17701;DHT22;8969;48.576;12.580;2023-12-22T00:05:16;5.00;99.90
17701;DHT22;8969;48.576;12.580;2023-12-22T00:07:44;5.00;99.90
17701;DHT22;8969;48.576;12.580;2023-12-22T00:10:13;5.00;99.90
17701;DHT22;8969;48.576;12.580;2023-12-22T00:12:41;5.10;99.90
17701;DHT22;8969;48.576;12.580;2023-12-22T00:15:09;5.00;99.90
17701;DHT22;8969;48.576;12.580;2023-12-22T00:17:37;5.10;99.90
17701;DHT22;8969;48.576;12.580;2023-12-22T00:20:07;5.10;99.90
17701;DHT22;8969;48.576;12.580;2023-12-22T00:22:40;5.10;99.90
17701;DHT22;8969;48.576;12.580;2023-12-22T00:25:08;5.10;99.90
17701;DHT22;8969;48.576;12.580;2023-12-22T00:27:36;5.00;99.90
17701;DHT22;8969;48.576;12.580;2023-12-22T00:30:05;5.00;99.90
17701;DHT22;8969;48.576;12.580;2023-12-22T00:32:34;5.00;99.90
17701;DHT22;8969;48.576;12.580;2023-12-22T00:35:02;5.00;99.90
17701;DHT22;8969;48.576;12.580;2023-12-22T00:37:33;4.90;99.90
17701;DHT22;8969;48.576;12.580;2023-12-22T00:40:01;4.90;99.90
17701;DHT22;8969;48.576;12.580;2023-12-22T00:42:31;4.90;99.90
17701;DHT22;8969;48.576;12.580;2023-12-22T00:44:59;4.90;99.90
17701;DHT22;8969;48.576;12.580;2023-12-22T00:47:27;4.90;99.90
17701;DHT22;8969;48.576;12.580;2023-12-22T00:49:55;4.90;99.90
17701;DHT22;8969;48.576;12.580;2023-12-22T00:52:23;4.80;99.90
17701;DHT22;8969;48.576;12.580;2023-12-22T00:54:53;4.80;99.90
17701;DHT22;8969;48.576;12.580;2023-12-22T00:57:21;4.80;99.90
17701;DHT22;8969;48.576;12.580;2023-12-22T00:59:49;4.80;99.90
17701;DHT22;8969;48.576;12.580;2023-12-22T01:02:17;4.80;99.90
17701;DHT22;8969;48.576;12.580;2023-12-22T01:04:47;4.80;99.90
17701;DHT22;8969;48.576;12.580;2023-12-22T01:07:15;4.70;99.90
17701;DHT22;8969;48.576;12.580;2023-12-22T01:09:45;4.60;99.90
17701;DHT22;8969;48.576;12.580;2023-12-22T01:12:14;4.50;99.90
17701;DHT22;8969;48.576;12.580;2023-12-22T01:14:42;4.50;99.90
17701;DHT22;8969;48.576;12.580;2023-12-22T01:17:12;4.50;99.90
17701;DHT22;8969;48.576;12.580;2023-12-22T01:19:40;4.50;99.90
17701;DHT22;8969;48.576;12.580;2023-12-22T01:22:08;4.40;99.90
17701;DHT22;8969;48.576;12.580;2023-12-22T01:24:36;4.40;99.90
17701;DHT22;8969;48.576;12.580;2023-12-22T01:27:06;4.40;99.90
17701;DHT22;8969;48.576;12.580;2023-12-22T01:29:35;4.30;99.90
17701;DHT22;8969;48.576;12.580;2023-12-22T01:32:04;4.30;99.90
17701;DHT22;8969;48.576;12.580;2023-12-22T01:34:32;4.30;99.90
17701;DHT22;8969;48.576;12.580;2023-12-22T01:37:01;4.30;99.90
17701;DHT22;8969;48.576;12.580;2023-12-22T01:39:29;4.30;99.90
17701;DHT22;8969;48.576;12.580;2023-12-22T01:41:57;4.30;99.90
17701;DHT22;8969;48.576;12.580;2023-12-22T01:44:25;4.20;99.90
17701;DHT22;8969;48.576;12.580;2023-12-22T01:46:54;4.20;99.90
17701;DHT22;8969;48.576;12.580;2023-12-22T01:49:23;4.20;99.90
17701;DHT22;8969;48.576;12.580;2023-12-22T01:51:53;4.20;99.90
17701;DHT22;8969;48.576;12.580;2023-12-22T01:54:21;4.10;99.90
17701;DHT22;8969;48.576;12.580;2023-12-22T01:56:49;4.10;99.90
17701;DHT22;8969;48.576;12.580;2023-12-22T01:59:17;4.20;99.90
17701;DHT22;8969;48.576;12.580;2023-12-22T02:01:45;4.10;99.90
17701;DHT22;8969;48.576;12.580;2023-12-22T02:04:15;4.10;99.90
17701;DHT22;8969;48.576;12.580;2023-12-22T02:06:44;4.10;99.90
17701;DHT22;8969;48.576;12.580;2023-12-22T02:09:12;4.10;99.90
17701;DHT22;8969;48.576;12.580;2023-12-22T02:11:40;4.20;99.90
17701;DHT22;8969;48.576;12.580;2023-12-22T02:14:08;4.20;99.90
17701;DHT22;8969;48.576;12.580;2023-12-22T02:16:41;4.20;99.90
17701;DHT22;8969;48.576;12.580;2023-12-22T02:19:24;4.10;99.90
17701;DHT22;8969;48.576;12.580;2023-12-22T02:22:05;4.20;99.90
17701;DHT22;8969;48.576;12.580;2023-12-22T02:24:37;4.20;99.90
17701;DHT22;8969;48.576;12.580;2023-12-22T02:27:07;4.20;99.90
17701;DHT22;8969;48.576;12.580;2023-12-22T02:29:43;4.20;99.90
17701;DHT22;8969;48.576;12.580;2023-12-22T02:32:21;4.20;99.90
17701;DHT22;8969;48.576;12.580;2023-12-22T02:34:52;4.20;99.90
17701;DHT22;8969;48.576;12.580;2023-12-22T02:37:21;4.20;99.90
17701;DHT22;8969;48.576;12.580;2023-12-22T02:39:52;4.20;99.90
17701;DHT22;8969;48.576;12.580;2023-12-22T02:42:21;4.20;99.90
17701;DHT22;8969;48.576;12.580;2023-12-22T02:44:57;4.20;99.90
17701;DHT22;8969;48.576;12.580;2023-12-22T02:47:26;4.10;99.90
17701;DHT22;8969;48.576;12.580;2023-12-22T02:49:55;4.10;99.90
17701;DHT22;8969;48.576;12.580;2023-12-22T02:52:23;4.10;99.90
17701;DHT22;8969;48.576;12.580;2023-12-22T02:54:53;4.10;99.90
17701;DHT22;8969;48.576;12.580;2023-12-22T02:57:21;4.10;99.90
17701;DHT22;8969;48.576;12.580;2023-12-22T02:59:49;4.10;99.90
17701;DHT22;8969;48.576;12.580;2023-12-22T03:02:17;4.10;99.90
17701;DHT22;8969;48.576;12.580;2023-12-22T03:04:45;4.10;99.90
17701;DHT22;8969;48.576;12.580;2023-12-22T03:07:14;4.10;99.90
17701;DHT22;8969;48.576;12.580;2023-12-22T03:09:43;4.10;99.90
17701;DHT22;8969;48.576;12.580;2023-12-22T03:12:12;4.10;99.90
17701;DHT22;8969;48.576;12.580;2023-12-22T03:14:41;4.10;99.90
17701;DHT22;8969;48.576;12.580;2023-12-22T03:17:09;4.10;99.90
17701;DHT22;8969;48.576;12.580;2023-12-22T03:19:39;4.10;99.90
17701;DHT22;8969;48.576;12.580;2023-12-22T03:22:07;4.10;99.90
17701;DHT22;8969;48.576;12.580;2023-12-22T03:24:35;4.10;99.90
17701;DHT22;8969;48.576;12.580;2023-12-22T03:27:05;4.00;99.90
17701;DHT22;8969;48.576;12.580;2023-12-22T03:29:35;4.00;99.90
17701;DHT22;8969;48.576;12.580;2023-12-22T03:32:03;4.00;99.90
17701;DHT22;8969;48.576;12.580;2023-12-22T03:34:31;4.00;99.90
17701;DHT22;8969;48.576;12.580;2023-12-22T03:36:59;3.90;99.90
17701;DHT22;8969;48.576;12.580;2023-12-22T03:39:27;4.00;99.90
17701;DHT22;8969;48.576;12.580;2023-12-22T03:41:56;4.00;99.90
17701;DHT22;8969;48.576;12.580;2023-12-22T03:44:24;4.00;99.90
17701;DHT22;8969;48.576;12.580;2023-12-22T03:46:53;4.00;99.90
17701;DHT22;8969;48.576;12.580;2023-12-22T03:49:23;4.00;99.90
17701;DHT22;8969;48.576;12.580;2023-12-22T03:51:51;4.00;99.90
17701;DHT22;8969;48.576;12.580;2023-12-22T03:54:19;4.00;99.90
17701;DHT22;8969;48.576;12.580;2023-12-22T03:56:48;4.10;99.90
17701;DHT22;8969;48.576;12.580;2023-12-22T03:59:16;4.00;99.90
17701;DHT22;8969;48.576;12.580;2023-12-22T04:01:50;3.90;99.90
17701;DHT22;8969;48.576;12.580;2023-12-22T04:04:20;3.90;99.90
17701;DHT22;8969;48.576;12.580;2023-12-22T04:06:50;3.80;99.90
17701;DHT22;8969;48.576;12.580;2023-12-22T04:09:19;3.80;99.90
17701;DHT22;8969;48.576;12.580;2023-12-22T04:11:47;3.80;99.90
17701;DHT22;8969;48.576;12.580;2023-12-22T04:14:15;3.80;99.90
17701;DHT22;8969;48.576;12.580;2023-12-22T04:16:45;3.80;99.90
17701;DHT22;8969;48.576;12.580;2023-12-22T04:19:13;3.70;99.90
17701;DHT22;8969;48.576;12.580;2023-12-22T04:21:43;3.60;99.90
17701;DHT22;8969;48.576;12.580;2023-12-22T04:24:11;3.50;99.90
17701;DHT22;8969;48.576;12.580;2023-12-22T04:26:39;3.40;99.90
17701;DHT22;8969;48.576;12.580;2023-12-22T04:29:07;3.40;99.90
17701;DHT22;8969;48.576;12.580;2023-12-22T04:31:35;3.40;99.90
17701;DHT22;8969;48.576;12.580;2023-12-22T04:34:03;3.30;99.90
17701;DHT22;8969;48.576;12.580;2023-12-22T04:36:31;3.40;99.90
17701;DHT22;8969;48.576;12.580;2023-12-22T04:39:00;3.30;99.90
17701;DHT22;8969;48.576;12.580;2023-12-22T04:41:28;3.20;99.90
17701;DHT22;8969;48.576;12.580;2023-12-22T04:43:56;3.30;99.90
17701;DHT22;8969;48.576;12.580;2023-12-22T04:46:26;3.20;99.90
17701;DHT22;8969;48.576;12.580;2023-12-22T04:48:54;3.20;99.90
17701;DHT22;8969;48.576;12.580;2023-12-22T04:51:22;3.20;99.90
17701;DHT22;8969;48.576;12.580;2023-12-22T04:53:50;3.20;99.90
17701;DHT22;8969;48.576;12.580;2023-12-22T04:56:20;3.20;99.90
17701;DHT22;8969;48.576;12.580;2023-12-22T04:58:48;3.20;99.90
17701;DHT22;8969;48.576;12.580;2023-12-22T05:01:17;3.20;99.90
17701;DHT22;8969;48.576;12.580;2023-12-22T05:03:46;3.20;99.90
17701;DHT22;8969;48.576;12.580;2023-12-22T05:06:14;3.20;99.90
17701;DHT22;8969;48.576;12.580;2023-12-22T05:08:42;3.20;99.90
17701;DHT22;8969;48.576;12.580;2023-12-22T05:11:10;3.20;99.90
17701;DHT22;8969;48.576;12.580;2023-12-22T05:13:39;3.20;99.90
17701;DHT22;8969;48.576;12.580;2023-12-22T05:16:10;3.30;99.90
17701;DHT22;8969;48.576;12.580;2023-12-22T05:18:39;3.30;99.90
17701;DHT22;8969;48.576;12.580;2023-12-22T05:21:07;3.20;99.90
17701;DHT22;8969;48.576;12.580;2023-12-22T05:23:35;3.30;99.90
17701;DHT22;8969;48.576;12.580;2023-12-22T05:26:03;3.30;99.90
17701;DHT22;8969;48.576;12.580;2023-12-22T05:28:32;3.30;99.90
17701;DHT22;8969;48.576;12.580;2023-12-22T05:31:01;3.30;99.90
17701;DHT22;8969;48.576;12.580;2023-12-22T05:33:29;3.20;99.90
17701;DHT22;8969;48.576;12.580;2023-12-22T05:35:58;3.30;99.90
17701;DHT22;8969;48.576;12.580;2023-12-22T05:38:26;3.30;99.90
17701;DHT22;8969;48.576;12.580;2023-12-22T05:40:54;3.30;99.90
17701;DHT22;8969;48.576;12.580;2023-12-22T05:43:22;3.30;99.90
17701;DHT22;8969;48.576;12.580;2023-12-22T05:45:50;3.30;99.90
17701;DHT22;8969;48.576;12.580;2023-12-22T05:48:20;3.30;99.90
17701;DHT22;8969;48.576;12.580;2023-12-22T05:50:48;3.30;99.90
17701;DHT22;8969;48.576;12.580;2023-12-22T05:53:17;3.30;99.90
17701;DHT22;8969;48.576;12.580;2023-12-22T05:55:45;3.30;99.90
17701;DHT22;8969;48.576;12.580;2023-12-22T05:58:13;3.40;99.90
17701;DHT22;8969;48.576;12.580;2023-12-22T06:00:41;3.30;99.90
17701;DHT22;8969;48.576;12.580;2023-12-22T06:03:10;3.40;99.90
17701;DHT22;8969;48.576;12.580;2023-12-22T06:05:40;3.40;99.90
17701;DHT22;8969;48.576;12.580;2023-12-22T06:08:08;3.40;99.90
17701;DHT22;8969;48.576;12.580;2023-12-22T06:10:36;3.40;99.90
17701;DHT22;8969;48.576;12.580;2023-12-22T06:13:04;3.40;99.90
17701;DHT22;8969;48.576;12.580;2023-12-22T06:15:33;3.40;99.90
17701;DHT22;8969;48.576;12.580;2023-12-22T06:18:01;3.40;99.90
17701;DHT22;8969;48.576;12.580;2023-12-22T06:20:29;3.40;99.90
17701;DHT22;8969;48.576;12.580;2023-12-22T06:22:59;3.40;99.90
17701;DHT22;8969;48.576;12.580;2023-12-22T06:25:27;3.40;99.90
17701;DHT22;8969;48.576;12.580;2023-12-22T06:27:55;3.40;99.90
17701;DHT22;8969;48.576;12.580;2023-12-22T06:30:24;3.30;99.90
17701;DHT22;8969;48.576;12.580;2023-12-22T06:32:53;3.40;99.90
17701;DHT22;8969;48.576;12.580;2023-12-22T06:35:22;3.40;99.90
17701;DHT22;8969;48.576;12.580;2023-12-22T06:37:52;3.30;99.90
17701;DHT22;8969;48.576;12.580;2023-12-22T06:40:23;3.30;99.90
17701;DHT22;8969;48.576;12.580;2023-12-22T06:42:51;3.30;99.90
17701;DHT22;8969;48.576;12.580;2023-12-22T06:45:20;3.40;99.90
17701;DHT22;8969;48.576;12.580;2023-12-22T06:47:48;3.30;99.90
17701;DHT22;8969;48.576;12.580;2023-12-22T06:50:17;3.30;99.90
17701;DHT22;8969;48.576;12.580;2023-12-22T06:52:47;3.30;99.90
17701;DHT22;8969;48.576;12.580;2023-12-22T06:55:15;3.30;99.90
17701;DHT22;8969;48.576;12.580;2023-12-22T06:57:49;3.30;99.90
17701;DHT22;8969;48.576;12.580;2023-12-22T07:00:18;3.30;99.90
17701;DHT22;8969;48.576;12.580;2023-12-22T07:02:46;3.30;99.90
17701;DHT22;8969;48.576;12.580;2023-12-22T07:05:33;3.30;99.90
17701;DHT22;8969;48.576;12.580;2023-12-22T07:08:05;3.40;99.90
17701;DHT22;8969;48.576;12.580;2023-12-22T07:10:34;3.30;99.90
17701;DHT22;8969;48.576;12.580;2023-12-22T07:13:05;3.30;99.90
17701;DHT22;8969;48.576;12.580;2023-12-22T07:15:33;3.30;99.90
17701;DHT22;8969;48.576;12.580;2023-12-22T07:18:02;3.30;99.90
17701;DHT22;8969;48.576;12.580;2023-12-22T07:20:32;3.30;99.90
17701;DHT22;8969;48.576;12.580;2023-12-22T07:23:00;3.30;99.90
17701;DHT22;8969;48.576;12.580;2023-12-22T07:25:35;3.40;99.90
17701;DHT22;8969;48.576;12.580;2023-12-22T07:28:05;3.40;99.90
17701;DHT22;8969;48.576;12.580;2023-12-22T07:30:37;3.40;99.90
17701;DHT22;8969;48.576;12.580;2023-12-22T07:33:05;3.40;99.90
17701;DHT22;8969;48.576;12.580;2023-12-22T07:35:33;3.40;99.90
17701;DHT22;8969;48.576;12.580;2023-12-22T07:38:02;3.40;99.90
17701;DHT22;8969;48.576;12.580;2023-12-22T07:40:30;3.40;99.90
17701;DHT22;8969;48.576;12.580;2023-12-22T07:42:59;3.30;99.90
17701;DHT22;8969;48.576;12.580;2023-12-22T07:45:29;3.40;99.90
17701;DHT22;8969;48.576;12.580;2023-12-22T07:48:17;3.40;99.90
17701;DHT22;8969;48.576;12.580;2023-12-22T07:51:06;3.40;99.90
17701;DHT22;8969;48.576;12.580;2023-12-22T07:53:36;3.40;99.90
17701;DHT22;8969;48.576;12.580;2023-12-22T07:56:04;3.30;99.90
17701;DHT22;8969;48.576;12.580;2023-12-22T07:58:35;3.40;99.90
17701;DHT22;8969;48.576;12.580;2023-12-22T08:01:04;3.40;99.90
17701;DHT22;8969;48.576;12.580;2023-12-22T08:03:34;3.40;99.90
17701;DHT22;8969;48.576;12.580;2023-12-22T08:06:03;3.50;99.90
17701;DHT22;8969;48.576;12.580;2023-12-22T08:08:36;3.50;99.90
17701;DHT22;8969;48.576;12.580;2023-12-22T08:11:04;3.60;99.90
17701;DHT22;8969;48.576;12.580;2023-12-22T08:13:32;3.60;99.90
17701;DHT22;8969;48.576;12.580;2023-12-22T08:16:01;3.60;99.90
17701;DHT22;8969;48.576;12.580;2023-12-22T08:18:31;3.60;99.90
17701;DHT22;8969;48.576;12.580;2023-12-22T08:21:03;3.70;99.90
17701;DHT22;8969;48.576;12.580;2023-12-22T08:23:43;3.70;99.90
17701;DHT22;8969;48.576;12.580;2023-12-22T08:26:20;3.70;99.90
17701;DHT22;8969;48.576;12.580;2023-12-22T08:28:48;3.70;99.90
17701;DHT22;8969;48.576;12.580;2023-12-22T08:31:16;3.70;99.90
17701;DHT22;8969;48.576;12.580;2023-12-22T08:33:46;3.70;99.90
17701;DHT22;8969;48.576;12.580;2023-12-22T08:36:15;3.80;99.90
17701;DHT22;8969;48.576;12.580;2023-12-22T08:38:43;3.90;99.90
17701;DHT22;8969;48.576;12.580;2023-12-22T08:41:14;3.90;99.90
17701;DHT22;8969;48.576;12.580;2023-12-22T08:43:43;3.90;99.90
17701;DHT22;8969;48.576;12.580;2023-12-22T08:46:12;4.00;99.90
17701;DHT22;8969;48.576;12.580;2023-12-22T08:48:41;4.00;99.90
17701;DHT22;8969;48.576;12.580;2023-12-22T08:51:10;4.00;99.90
17701;DHT22;8969;48.576;12.580;2023-12-22T08:53:38;4.10;99.90
17701;DHT22;8969;48.576;12.580;2023-12-22T08:56:07;4.20;99.90
17701;DHT22;8969;48.576;12.580;2023-12-22T08:58:36;4.30;99.90
17701;DHT22;8969;48.576;12.580;2023-12-22T09:01:04;4.30;99.90
17701;DHT22;8969;48.576;12.580;2023-12-22T09:03:34;4.30;99.90
17701;DHT22;8969;48.576;12.580;2023-12-22T09:06:13;4.40;99.90
17701;DHT22;8969;48.576;12.580;2023-12-22T09:08:41;4.50;99.90
17701;DHT22;8969;48.576;12.580;2023-12-22T09:11:13;4.50;99.90
17701;DHT22;8969;48.576;12.580;2023-12-22T09:13:41;4.50;99.90
17701;DHT22;8969;48.576;12.580;2023-12-22T09:16:10;4.50;99.90
17701;DHT22;8969;48.576;12.580;2023-12-22T09:18:41;4.50;99.90
17701;DHT22;8969;48.576;12.580;2023-12-22T09:21:13;4.50;99.90
17701;DHT22;8969;48.576;12.580;2023-12-22T09:23:44;4.50;99.90
17701;DHT22;8969;48.576;12.580;2023-12-22T09:26:13;4.60;99.90
17701;DHT22;8969;48.576;12.580;2023-12-22T09:28:42;4.60;99.90
17701;DHT22;8969;48.576;12.580;2023-12-22T09:31:10;4.70;99.90
17701;DHT22;8969;48.576;12.580;2023-12-22T09:33:40;4.70;99.90
17701;DHT22;8969;48.576;12.580;2023-12-22T09:36:09;4.70;99.90
17701;DHT22;8969;48.576;12.580;2023-12-22T09:38:38;4.60;99.90
17701;DHT22;8969;48.576;12.580;2023-12-22T09:41:06;4.70;99.90
17701;DHT22;8969;48.576;12.580;2023-12-22T09:43:35;4.70;99.90
17701;DHT22;8969;48.576;12.580;2023-12-22T09:46:05;4.70;99.90
17701;DHT22;8969;48.576;12.580;2023-12-22T09:48:34;4.70;99.90
17701;DHT22;8969;48.576;12.580;2023-12-22T09:51:07;4.70;99.90
17701;DHT22;8969;48.576;12.580;2023-12-22T09:53:37;4.80;99.90
17701;DHT22;8969;48.576;12.580;2023-12-22T09:56:06;4.90;99.90
17701;DHT22;8969;48.576;12.580;2023-12-22T09:58:36;5.00;99.90
17701;DHT22;8969;48.576;12.580;2023-12-22T10:01:05;5.00;99.90
17701;DHT22;8969;48.576;12.580;2023-12-22T10:03:34;5.00;99.90
17701;DHT22;8969;48.576;12.580;2023-12-22T10:06:03;5.10;99.90
17701;DHT22;8969;48.576;12.580;2023-12-22T10:08:32;5.00;99.90
17701;DHT22;8969;48.576;12.580;2023-12-22T10:11:03;5.00;99.90
17701;DHT22;8969;48.576;12.580;2023-12-22T10:13:33;5.10;99.90
17701;DHT22;8969;48.576;12.580;2023-12-22T10:16:07;5.10;99.90
17701;DHT22;8969;48.576;12.580;2023-12-22T10:18:35;5.00;99.90
17701;DHT22;8969;48.576;12.580;2023-12-22T10:21:04;5.10;99.90
17701;DHT22;8969;48.576;12.580;2023-12-22T10:23:32;5.10;99.90
17701;DHT22;8969;48.576;12.580;2023-12-22T10:26:00;5.20;99.90
17701;DHT22;8969;48.576;12.580;2023-12-22T10:28:31;5.20;99.90
17701;DHT22;8969;48.576;12.580;2023-12-22T10:30:59;5.20;99.90
17701;DHT22;8969;48.576;12.580;2023-12-22T10:33:33;5.20;99.90
17701;DHT22;8969;48.576;12.580;2023-12-22T10:36:02;5.20;99.90
17701;DHT22;8969;48.576;12.580;2023-12-22T10:38:32;5.20;99.90
17701;DHT22;8969;48.576;12.580;2023-12-22T10:41:06;5.20;99.90
17701;DHT22;8969;48.576;12.580;2023-12-22T10:43:40;5.30;99.90
17701;DHT22;8969;48.576;12.580;2023-12-22T10:46:08;5.30;99.90
17701;DHT22;8969;48.576;12.580;2023-12-22T10:48:39;5.30;99.90
17701;DHT22;8969;48.576;12.580;2023-12-22T10:51:09;5.40;99.90
17701;DHT22;8969;48.576;12.580;2023-12-22T10:53:41;5.40;99.90
17701;DHT22;8969;48.576;12.580;2023-12-22T10:56:09;5.40;99.90
17701;DHT22;8969;48.576;12.580;2023-12-22T10:58:39;5.40;99.90
17701;DHT22;8969;48.576;12.580;2023-12-22T11:01:08;5.40;99.90
17701;DHT22;8969;48.576;12.580;2023-12-22T11:03:39;5.40;99.90
17701;DHT22;8969;48.576;12.580;2023-12-22T11:06:10;5.40;99.90
17701;DHT22;8969;48.576;12.580;2023-12-22T11:08:40;5.40;99.90
17701;DHT22;8969;48.576;12.580;2023-12-22T11:11:15;5.40;99.90
17701;DHT22;8969;48.576;12.580;2023-12-22T11:13:46;5.40;99.90
17701;DHT22;8969;48.576;12.580;2023-12-22T11:16:15;5.50;99.90
17701;DHT22;8969;48.576;12.580;2023-12-22T11:18:46;5.40;99.90
17701;DHT22;8969;48.576;12.580;2023-12-22T11:21:19;5.50;99.90
17701;DHT22;8969;48.576;12.580;2023-12-22T11:23:49;5.60;99.90
17701;DHT22;8969;48.576;12.580;2023-12-22T11:26:19;5.60;99.90
17701;DHT22;8969;48.576;12.580;2023-12-22T11:28:50;5.60;99.90
17701;DHT22;8969;48.576;12.580;2023-12-22T11:31:18;5.60;99.90
17701;DHT22;8969;48.576;12.580;2023-12-22T11:33:48;5.60;99.90
17701;DHT22;8969;48.576;12.580;2023-12-22T11:36:31;5.60;99.90
17701;DHT22;8969;48.576;12.580;2023-12-22T11:38:59;5.60;99.90
17701;DHT22;8969;48.576;12.580;2023-12-22T11:41:32;5.60;99.90
17701;DHT22;8969;48.576;12.580;2023-12-22T11:44:05;5.60;99.90
17701;DHT22;8969;48.576;12.580;2023-12-22T11:46:34;5.60;99.90
17701;DHT22;8969;48.576;12.580;2023-12-22T11:49:02;5.60;99.90
17701;DHT22;8969;48.576;12.580;2023-12-22T11:51:33;5.60;99.90
17701;DHT22;8969;48.576;12.580;2023-12-22T11:54:03;5.60;99.90
17701;DHT22;8969;48.576;12.580;2023-12-22T11:56:31;5.60;99.90
17701;DHT22;8969;48.576;12.580;2023-12-22T11:59:05;5.60;99.90
17701;DHT22;8969;48.576;12.580;2023-12-22T12:01:38;5.70;99.90
17701;DHT22;8969;48.576;12.580;2023-12-22T12:04:07;5.70;99.90
17701;DHT22;8969;48.576;12.580;2023-12-22T12:06:35;5.70;99.90
17701;DHT22;8969;48.576;12.580;2023-12-22T12:09:06;5.60;99.90
17701;DHT22;8969;48.576;12.580;2023-12-22T12:12:08;5.50;99.90
17701;DHT22;8969;48.576;12.580;2023-12-22T12:14:41;5.50;99.90
17701;DHT22;8969;48.576;12.580;2023-12-22T12:17:11;5.40;99.90
17701;DHT22;8969;48.576;12.580;2023-12-22T12:19:39;5.30;99.90
17701;DHT22;8969;48.576;12.580;2023-12-22T12:22:09;5.30;99.90
17701;DHT22;8969;48.576;12.580;2023-12-22T12:24:39;5.20;99.90
17701;DHT22;8969;48.576;12.580;2023-12-22T12:27:08;5.20;99.90
17701;DHT22;8969;48.576;12.580;2023-12-22T12:29:38;5.30;99.90
17701;DHT22;8969;48.576;12.580;2023-12-22T12:32:08;5.20;99.90
17701;DHT22;8969;48.576;12.580;2023-12-22T12:34:37;5.20;99.90
17701;DHT22;8969;48.576;12.580;2023-12-22T12:37:05;5.20;99.90
17701;DHT22;8969;48.576;12.580;2023-12-22T12:39:34;5.20;99.90
17701;DHT22;8969;48.576;12.580;2023-12-22T12:42:06;5.20;99.90
17701;DHT22;8969;48.576;12.580;2023-12-22T12:44:35;5.20;99.90
17701;DHT22;8969;48.576;12.580;2023-12-22T12:47:14;5.20;99.90
17701;DHT22;8969;48.576;12.580;2023-12-22T12:49:43;5.30;99.90
17701;DHT22;8969;48.576;12.580;2023-12-22T12:52:14;5.20;99.90
17701;DHT22;8969;48.576;12.580;2023-12-22T12:54:43;5.20;99.90
17701;DHT22;8969;48.576;12.580;2023-12-22T12:57:14;5.20;99.90
17701;DHT22;8969;48.576;12.580;2023-12-22T12:59:45;5.20;99.90
17701;DHT22;8969;48.576;12.580;2023-12-22T13:02:16;5.30;99.90
17701;DHT22;8969;48.576;12.580;2023-12-22T13:04:44;5.20;99.90
17701;DHT22;8969;48.576;12.580;2023-12-22T13:07:12;5.30;99.90
17701;DHT22;8969;48.576;12.580;2023-12-22T13:09:41;5.30;99.90
17701;DHT22;8969;48.576;12.580;2023-12-22T13:12:10;5.30;99.90
17701;DHT22;8969;48.576;12.580;2023-12-22T13:14:38;5.40;99.90
17701;DHT22;8969;48.576;12.580;2023-12-22T13:17:06;5.40;99.90
17701;DHT22;8969;48.576;12.580;2023-12-22T13:19:38;5.40;99.90
17701;DHT22;8969;48.576;12.580;2023-12-22T13:22:07;5.40;99.90
17701;DHT22;8969;48.576;12.580;2023-12-22T13:24:35;5.40;99.90
17701;DHT22;8969;48.576;12.580;2023-12-22T13:27:04;5.40;99.90
17701;DHT22;8969;48.576;12.580;2023-12-22T13:29:43;5.50;99.90
17701;DHT22;8969;48.576;12.580;2023-12-22T13:32:22;5.50;99.90
17701;DHT22;8969;48.576;12.580;2023-12-22T13:34:53;5.50;99.90
17701;DHT22;8969;48.576;12.580;2023-12-22T13:37:23;5.40;99.90
17701;DHT22;8969;48.576;12.580;2023-12-22T13:39:54;5.50;99.90
17701;DHT22;8969;48.576;12.580;2023-12-22T13:42:22;5.50;99.90
17701;DHT22;8969;48.576;12.580;2023-12-22T13:44:51;5.60;99.90
17701;DHT22;8969;48.576;12.580;2023-12-22T13:47:19;5.60;99.90
17701;DHT22;8969;48.576;12.580;2023-12-22T13:49:48;5.60;99.90
17701;DHT22;8969;48.576;12.580;2023-12-22T13:52:26;5.60;99.90
17701;DHT22;8969;48.576;12.580;2023-12-22T13:54:55;5.70;99.90
17701;DHT22;8969;48.576;12.580;2023-12-22T13:57:25;5.80;99.90
17701;DHT22;8969;48.576;12.580;2023-12-22T13:59:54;5.70;99.90
17701;DHT22;8969;48.576;12.580;2023-12-22T14:02:22;5.80;99.90
17701;DHT22;8969;48.576;12.580;2023-12-22T14:04:50;5.80;99.90
17701;DHT22;8969;48.576;12.580;2023-12-22T14:07:19;5.80;99.90
17701;DHT22;8969;48.576;12.580;2023-12-22T14:09:48;5.80;99.90
17701;DHT22;8969;48.576;12.580;2023-12-22T14:12:16;5.80;99.90
17701;DHT22;8969;48.576;12.580;2023-12-22T14:14:54;5.80;99.90
17701;DHT22;8969;48.576;12.580;2023-12-22T14:17:22;5.80;99.90
17701;DHT22;8969;48.576;12.580;2023-12-22T14:19:50;5.80;99.90
17701;DHT22;8969;48.576;12.580;2023-12-22T14:22:19;5.80;99.90
17701;DHT22;8969;48.576;12.580;2023-12-22T14:24:48;5.80;99.90
17701;DHT22;8969;48.576;12.580;2023-12-22T14:27:16;5.80;99.90
17701;DHT22;8969;48.576;12.580;2023-12-22T14:29:47;5.80;99.90
17701;DHT22;8969;48.576;12.580;2023-12-22T14:32:15;5.80;99.90
17701;DHT22;8969;48.576;12.580;2023-12-22T14:34:46;5.80;99.90
17701;DHT22;8969;48.576;12.580;2023-12-22T14:37:14;5.80;99.90
17701;DHT22;8969;48.576;12.580;2023-12-22T14:39:43;5.80;99.90
17701;DHT22;8969;48.576;12.580;2023-12-22T14:42:14;5.80;99.90
17701;DHT22;8969;48.576;12.580;2023-12-22T14:44:42;5.80;99.90
17701;DHT22;8969;48.576;12.580;2023-12-22T14:47:10;5.80;99.90
17701;DHT22;8969;48.576;12.580;2023-12-22T14:49:40;5.80;99.90
17701;DHT22;8969;48.576;12.580;2023-12-22T14:52:08;5.70;99.90
17701;DHT22;8969;48.576;12.580;2023-12-22T14:54:36;5.60;99.90
17701;DHT22;8969;48.576;12.580;2023-12-22T14:57:05;5.50;99.90
17701;DHT22;8969;48.576;12.580;2023-12-22T14:59:34;5.50;99.90
17701;DHT22;8969;48.576;12.580;2023-12-22T15:02:03;5.50;99.90
17701;DHT22;8969;48.576;12.580;2023-12-22T15:04:31;5.50;99.90
17701;DHT22;8969;48.576;12.580;2023-12-22T15:07:00;5.50;99.90
17701;DHT22;8969;48.576;12.580;2023-12-22T15:09:29;5.50;99.90
17701;DHT22;8969;48.576;12.580;2023-12-22T15:11:57;5.50;99.90
17701;DHT22;8969;48.576;12.580;2023-12-22T15:14:28;5.40;99.90
17701;DHT22;8969;48.576;12.580;2023-12-22T15:16:57;5.50;99.90
17701;DHT22;8969;48.576;12.580;2023-12-22T15:19:27;5.40;99.90
17701;DHT22;8969;48.576;12.580;2023-12-22T15:21:56;5.40;99.90
17701;DHT22;8969;48.576;12.580;2023-12-22T15:24:24;5.40;99.90
17701;DHT22;8969;48.576;12.580;2023-12-22T15:26:53;5.50;99.90
17701;DHT22;8969;48.576;12.580;2023-12-22T15:29:21;5.50;99.90
17701;DHT22;8969;48.576;12.580;2023-12-22T15:31:49;5.50;99.90
17701;DHT22;8969;48.576;12.580;2023-12-22T15:34:19;5.50;99.90
17701;DHT22;8969;48.576;12.580;2023-12-22T15:36:47;5.60;99.90
17701;DHT22;8969;48.576;12.580;2023-12-22T15:39:15;5.60;99.90
17701;DHT22;8969;48.576;12.580;2023-12-22T15:41:43;5.70;99.90
17701;DHT22;8969;48.576;12.580;2023-12-22T15:44:11;5.70;99.90
17701;DHT22;8969;48.576;12.580;2023-12-22T15:46:39;5.70;99.90
17701;DHT22;8969;48.576;12.580;2023-12-22T15:49:07;5.70;99.90
17701;DHT22;8969;48.576;12.580;2023-12-22T15:51:37;5.70;99.90
17701;DHT22;8969;48.576;12.580;2023-12-22T15:54:05;5.80;99.90
17701;DHT22;8969;48.576;12.580;2023-12-22T15:56:33;5.80;99.90
17701;DHT22;8969;48.576;12.580;2023-12-22T15:59:01;5.90;99.90